Arraias Airport


Codes: SWRA/AAI
Name: Arraias Airport
City: Arraias
Country: Brazil
Elevation: 1923 ft.

Photos at Arraias Airport


   Photos courtesy of SpottingLog. You can add your own sightings and photos by signing up for a free trial today.



No photos found.

Weather at Arraias Airport


Time (UTC)DescriptionTempratureWindCloud coverageVisibilityPressureHumidity
19-Apr-2024 03:00Overcast Clouds24°C2 mph, SE89%10000m1012hPa82%
19-Apr-2024 06:00Light Rain24°C2 mph, E84%10000m1012hPa84%
19-Apr-2024 09:00Light Rain22°C2 mph, E59%10000m1012hPa88%
19-Apr-2024 12:00Light Rain27°C4 mph, SE45%10000m1014hPa72%
19-Apr-2024 15:00Moderate Rain29°C2 mph, SE16%7803m1012hPa65%
19-Apr-2024 18:00Light Rain28°C2 mph, NE49%10000m1010hPa71%
19-Apr-2024 21:00Overcast Clouds26°C2 mph, SE100%10000m1011hPa74%
20-Apr-2024 00:00Overcast Clouds25°C2 mph, E100%10000m1013hPa75%
20-Apr-2024 03:00Light Rain24°C2 mph, NE100%10000m1013hPa81%
20-Apr-2024 06:00Light Rain22°C2 mph, NW100%10000m1013hPa89%
20-Apr-2024 09:00Moderate Rain22°C2 mph, S96%10000m1014hPa93%
20-Apr-2024 12:00Light Rain25°C4 mph, SE98%10000m1016hPa79%
20-Apr-2024 15:00Broken Clouds30°C7 mph, E83%10000m1014hPa56%
20-Apr-2024 18:00Light Rain28°C2 mph, SE92%10000m1011hPa66%
20-Apr-2024 21:00Overcast Clouds25°C2 mph, SE88%10000m1012hPa72%
21-Apr-2024 00:00Overcast Clouds24°C4 mph, SE94%10000m1013hPa78%
21-Apr-2024 03:00Overcast Clouds23°C2 mph, SE98%10000m1014hPa77%
21-Apr-2024 06:00Overcast Clouds21°C4 mph, SE94%10000m1012hPa84%
21-Apr-2024 09:00Overcast Clouds20°C4 mph, SE100%10000m1014hPa86%
21-Apr-2024 12:00Overcast Clouds25°C9 mph, SE100%10000m1015hPa69%
21-Apr-2024 15:00Scattered Clouds30°C7 mph, SE28%10000m1013hPa51%
21-Apr-2024 18:00Broken Clouds30°C4 mph, SE52%10000m1010hPa54%
21-Apr-2024 21:00Overcast Clouds26°C0 mph, NE100%10000m1010hPa58%
22-Apr-2024 00:00Overcast Clouds26°C2 mph, SE100%10000m1012hPa61%
22-Apr-2024 03:00Overcast Clouds24°C4 mph, SE100%10000m1012hPa69%
22-Apr-2024 06:00Overcast Clouds24°C4 mph, SE98%10000m1011hPa69%
22-Apr-2024 09:00Broken Clouds22°C4 mph, SE75%10000m1012hPa75%
22-Apr-2024 12:00Broken Clouds26°C7 mph, SE66%10000m1014hPa64%
22-Apr-2024 15:00Broken Clouds30°C7 mph, SE69%10000m1012hPa48%
22-Apr-2024 18:00Broken Clouds29°C2 mph, SE60%10000m1009hPa57%
22-Apr-2024 21:00Overcast Clouds26°C2 mph, SE98%10000m1010hPa60%
23-Apr-2024 00:00Broken Clouds25°C2 mph, SE78%10000m1012hPa60%
23-Apr-2024 03:00Broken Clouds24°C2 mph, SE82%10000m1012hPa64%
23-Apr-2024 06:00Overcast Clouds24°C4 mph, SE87%10000m1012hPa65%
23-Apr-2024 09:00Scattered Clouds21°C4 mph, SE43%10000m1013hPa76%
23-Apr-2024 12:00Few Clouds26°C4 mph, SE21%10000m1015hPa62%
23-Apr-2024 15:00Clear Sky31°C7 mph, SE0%10000m1013hPa48%
23-Apr-2024 18:00Scattered Clouds29°C4 mph, SE25%10000m1010hPa54%
23-Apr-2024 21:00Overcast Clouds27°C2 mph, E90%10000m1010hPa60%
24-Apr-2024 00:00Overcast Clouds25°C4 mph, SE85%10000m1013hPa61%